sensor_id;sensor_type;location;lat;lon;timestamp;temperature;humidity
36424;DHT22;22458;45.328;9.514;2023-02-01T00:01:58;6.90;84.10
36424;DHT22;22458;45.328;9.514;2023-02-01T00:04:23;6.90;84.10
36424;DHT22;22458;45.328;9.514;2023-02-01T00:06:49;6.80;83.90
36424;DHT22;22458;45.328;9.514;2023-02-01T00:09:15;6.80;84.10
36424;DHT22;22458;45.328;9.514;2023-02-01T00:11:41;6.80;84.10
36424;DHT22;22458;45.328;9.514;2023-02-01T00:14:06;6.90;84.00
36424;DHT22;22458;45.328;9.514;2023-02-01T00:16:33;6.90;83.90
36424;DHT22;22458;45.328;9.514;2023-02-01T00:19:05;6.90;83.90
36424;DHT22;22458;45.328;9.514;2023-02-01T00:21:31;6.90;83.90
36424;DHT22;22458;45.328;9.514;2023-02-01T00:23:58;7.00;83.80
36424;DHT22;22458;45.328;9.514;2023-02-01T00:26:38;7.00;83.70
36424;DHT22;22458;45.328;9.514;2023-02-01T00:29:09;7.00;83.60
36424;DHT22;22458;45.328;9.514;2023-02-01T00:31:36;7.00;83.50
36424;DHT22;22458;45.328;9.514;2023-02-01T00:34:02;7.00;83.50
36424;DHT22;22458;45.328;9.514;2023-02-01T00:36:27;6.80;83.70
36424;DHT22;22458;45.328;9.514;2023-02-01T00:38:55;6.70;83.80
36424;DHT22;22458;45.328;9.514;2023-02-01T00:41:21;6.60;83.90
36424;DHT22;22458;45.328;9.514;2023-02-01T00:43:48;6.50;84.10
36424;DHT22;22458;45.328;9.514;2023-02-01T00:46:15;6.50;84.30
36424;DHT22;22458;45.328;9.514;2023-02-01T00:48:41;6.60;84.20
36424;DHT22;22458;45.328;9.514;2023-02-01T00:51:19;6.60;84.00
36424;DHT22;22458;45.328;9.514;2023-02-01T00:53:45;6.70;83.80
36424;DHT22;22458;45.328;9.514;2023-02-01T00:56:11;6.70;83.60
36424;DHT22;22458;45.328;9.514;2023-02-01T00:58:37;6.60;83.40
36424;DHT22;22458;45.328;9.514;2023-02-01T01:01:04;6.60;83.40
36424;DHT22;22458;45.328;9.514;2023-02-01T01:03:31;6.60;83.50
36424;DHT22;22458;45.328;9.514;2023-02-01T01:06:02;6.50;83.50
36424;DHT22;22458;45.328;9.514;2023-02-01T01:08:28;6.50;83.50
36424;DHT22;22458;45.328;9.514;2023-02-01T01:10:54;6.50;83.60
36424;DHT22;22458;45.328;9.514;2023-02-01T01:13:20;6.40;83.60
36424;DHT22;22458;45.328;9.514;2023-02-01T01:15:46;6.30;83.70
36424;DHT22;22458;45.328;9.514;2023-02-01T01:18:12;6.20;84.00
36424;DHT22;22458;45.328;9.514;2023-02-01T01:20:39;6.20;84.20
36424;DHT22;22458;45.328;9.514;2023-02-01T01:23:06;6.20;84.30
36424;DHT22;22458;45.328;9.514;2023-02-01T01:25:32;6.20;84.30
36424;DHT22;22458;45.328;9.514;2023-02-01T01:28:02;6.10;84.20
36424;DHT22;22458;45.328;9.514;2023-02-01T01:30:27;6.20;84.20
36424;DHT22;22458;45.328;9.514;2023-02-01T01:32:53;6.20;84.20
36424;DHT22;22458;45.328;9.514;2023-02-01T01:35:19;6.10;84.10
36424;DHT22;22458;45.328;9.514;2023-02-01T01:37:45;6.20;84.10
36424;DHT22;22458;45.328;9.514;2023-02-01T01:40:11;6.10;84.00
36424;DHT22;22458;45.328;9.514;2023-02-01T01:42:40;6.10;83.90
36424;DHT22;22458;45.328;9.514;2023-02-01T01:45:32;6.10;83.90
36424;DHT22;22458;45.328;9.514;2023-02-01T01:48:10;6.10;83.80
36424;DHT22;22458;45.328;9.514;2023-02-01T01:51:00;6.10;84.00
36424;DHT22;22458;45.328;9.514;2023-02-01T01:53:35;6.00;84.10
36424;DHT22;22458;45.328;9.514;2023-02-01T01:56:03;6.00;84.20
36424;DHT22;22458;45.328;9.514;2023-02-01T01:58:30;6.00;84.10
36424;DHT22;22458;45.328;9.514;2023-02-01T02:00:57;6.10;83.80
36424;DHT22;22458;45.328;9.514;2023-02-01T02:03:37;6.00;83.70
36424;DHT22;22458;45.328;9.514;2023-02-01T02:06:03;6.00;83.70
36424;DHT22;22458;45.328;9.514;2023-02-01T02:08:30;5.90;83.70
36424;DHT22;22458;45.328;9.514;2023-02-01T02:10:55;5.90;83.90
36424;DHT22;22458;45.328;9.514;2023-02-01T02:13:39;5.90;83.80
36424;DHT22;22458;45.328;9.514;2023-02-01T02:19:10;5.80;83.80
36424;DHT22;22458;45.328;9.514;2023-02-01T02:27:14;5.70;83.80
36424;DHT22;22458;45.328;9.514;2023-02-01T02:41:36;5.60;84.10
36424;DHT22;22458;45.328;9.514;2023-02-01T02:44:44;5.60;84.00
36424;DHT22;22458;45.328;9.514;2023-02-01T02:50:50;5.50;84.50
36424;DHT22;22458;45.328;9.514;2023-02-01T02:53:13;5.60;84.00
36424;DHT22;22458;45.328;9.514;2023-02-01T02:56:00;5.50;84.00
36424;DHT22;22458;45.328;9.514;2023-02-01T02:58:46;5.50;84.10
36424;DHT22;22458;45.328;9.514;2023-02-01T03:01:32;5.40;84.20
36424;DHT22;22458;45.328;9.514;2023-02-01T03:04:17;5.40;84.20
36424;DHT22;22458;45.328;9.514;2023-02-01T03:06:47;5.40;84.20
36424;DHT22;22458;45.328;9.514;2023-02-01T03:09:22;5.50;84.20
36424;DHT22;22458;45.328;9.514;2023-02-01T03:11:51;5.50;84.30
36424;DHT22;22458;45.328;9.514;2023-02-01T03:14:40;5.50;84.20
36424;DHT22;22458;45.328;9.514;2023-02-01T03:17:14;5.60;84.20
36424;DHT22;22458;45.328;9.514;2023-02-01T03:19:45;5.60;84.20
36424;DHT22;22458;45.328;9.514;2023-02-01T03:22:20;5.60;84.20
36424;DHT22;22458;45.328;9.514;2023-02-01T03:25:01;5.50;84.30
36424;DHT22;22458;45.328;9.514;2023-02-01T03:27:37;5.50;84.30
36424;DHT22;22458;45.328;9.514;2023-02-01T03:30:58;5.40;84.50
36424;DHT22;22458;45.328;9.514;2023-02-01T03:33:09;5.30;85.00
36424;DHT22;22458;45.328;9.514;2023-02-01T03:38:49;5.30;85.50
36424;DHT22;22458;45.328;9.514;2023-02-01T03:43:55;5.30;85.30
36424;DHT22;22458;45.328;9.514;2023-02-01T03:46:30;5.30;85.50
36424;DHT22;22458;45.328;9.514;2023-02-01T03:49:02;5.30;85.50
36424;DHT22;22458;45.328;9.514;2023-02-01T03:51:29;5.20;85.70
36424;DHT22;22458;45.328;9.514;2023-02-01T03:53:57;5.30;85.80
36424;DHT22;22458;45.328;9.514;2023-02-01T03:56:25;5.40;85.80
36424;DHT22;22458;45.328;9.514;2023-02-01T03:58:53;5.50;85.80
36424;DHT22;22458;45.328;9.514;2023-02-01T04:01:28;5.50;85.80
36424;DHT22;22458;45.328;9.514;2023-02-01T04:03:55;5.50;85.80
36424;DHT22;22458;45.328;9.514;2023-02-01T04:06:21;5.60;85.70
36424;DHT22;22458;45.328;9.514;2023-02-01T04:08:47;5.60;85.70
36424;DHT22;22458;45.328;9.514;2023-02-01T04:11:13;5.50;85.60
36424;DHT22;22458;45.328;9.514;2023-02-01T04:13:39;5.50;85.60
36424;DHT22;22458;45.328;9.514;2023-02-01T04:16:05;5.50;85.60
36424;DHT22;22458;45.328;9.514;2023-02-01T04:18:31;5.60;85.60
36424;DHT22;22458;45.328;9.514;2023-02-01T04:20:57;5.50;85.60
36424;DHT22;22458;45.328;9.514;2023-02-01T04:23:22;5.40;85.60
36424;DHT22;22458;45.328;9.514;2023-02-01T04:25:48;5.40;85.60
36424;DHT22;22458;45.328;9.514;2023-02-01T04:28:15;5.40;85.60
36424;DHT22;22458;45.328;9.514;2023-02-01T04:30:41;5.50;85.80
36424;DHT22;22458;45.328;9.514;2023-02-01T04:33:06;5.40;85.80
36424;DHT22;22458;45.328;9.514;2023-02-01T04:35:33;5.30;86.00
36424;DHT22;22458;45.328;9.514;2023-02-01T04:37:59;5.30;86.30
36424;DHT22;22458;45.328;9.514;2023-02-01T04:40:25;5.20;86.50
36424;DHT22;22458;45.328;9.514;2023-02-01T04:42:51;5.20;86.60
36424;DHT22;22458;45.328;9.514;2023-02-01T04:45:16;5.10;86.60
36424;DHT22;22458;45.328;9.514;2023-02-01T04:47:42;5.10;86.60
36424;DHT22;22458;45.328;9.514;2023-02-01T04:50:08;5.00;86.80
36424;DHT22;22458;45.328;9.514;2023-02-01T04:52:36;4.90;86.90
36424;DHT22;22458;45.328;9.514;2023-02-01T04:55:03;4.80;87.20
36424;DHT22;22458;45.328;9.514;2023-02-01T04:57:29;4.80;87.40
36424;DHT22;22458;45.328;9.514;2023-02-01T04:59:55;4.70;87.60
36424;DHT22;22458;45.328;9.514;2023-02-01T05:02:21;4.70;87.60
36424;DHT22;22458;45.328;9.514;2023-02-01T05:04:47;4.60;87.70
36424;DHT22;22458;45.328;9.514;2023-02-01T05:07:12;4.50;87.90
36424;DHT22;22458;45.328;9.514;2023-02-01T05:09:38;4.40;88.10
36424;DHT22;22458;45.328;9.514;2023-02-01T05:12:04;4.40;88.30
36424;DHT22;22458;45.328;9.514;2023-02-01T05:14:49;4.30;88.30
36424;DHT22;22458;45.328;9.514;2023-02-01T05:17:15;4.20;88.40
36424;DHT22;22458;45.328;9.514;2023-02-01T05:19:40;4.30;88.40
36424;DHT22;22458;45.328;9.514;2023-02-01T05:22:06;4.20;88.30
36424;DHT22;22458;45.328;9.514;2023-02-01T05:24:32;4.20;88.50
36424;DHT22;22458;45.328;9.514;2023-02-01T05:26:58;4.20;88.50
36424;DHT22;22458;45.328;9.514;2023-02-01T05:29:24;4.20;88.50
36424;DHT22;22458;45.328;9.514;2023-02-01T05:31:50;4.20;88.40
36424;DHT22;22458;45.328;9.514;2023-02-01T05:34:15;4.20;88.30
36424;DHT22;22458;45.328;9.514;2023-02-01T05:36:41;4.20;88.30
36424;DHT22;22458;45.328;9.514;2023-02-01T05:39:07;4.10;88.30
36424;DHT22;22458;45.328;9.514;2023-02-01T05:41:33;4.10;88.70
36424;DHT22;22458;45.328;9.514;2023-02-01T05:43:58;4.10;88.20
36424;DHT22;22458;45.328;9.514;2023-02-01T05:46:24;4.10;88.20
36424;DHT22;22458;45.328;9.514;2023-02-01T05:48:50;4.00;88.10
36424;DHT22;22458;45.328;9.514;2023-02-01T05:51:16;4.00;88.20
36424;DHT22;22458;45.328;9.514;2023-02-01T05:53:41;4.00;88.30
36424;DHT22;22458;45.328;9.514;2023-02-01T05:56:07;3.90;88.60
36424;DHT22;22458;45.328;9.514;2023-02-01T05:58:33;3.90;88.60
36424;DHT22;22458;45.328;9.514;2023-02-01T06:01:00;3.90;88.60
36424;DHT22;22458;45.328;9.514;2023-02-01T06:03:26;3.90;88.60
36424;DHT22;22458;45.328;9.514;2023-02-01T06:05:51;4.00;88.60
36424;DHT22;22458;45.328;9.514;2023-02-01T06:08:17;3.90;88.60
36424;DHT22;22458;45.328;9.514;2023-02-01T06:10:43;4.00;88.60
36424;DHT22;22458;45.328;9.514;2023-02-01T06:13:09;4.00;88.40
36424;DHT22;22458;45.328;9.514;2023-02-01T06:15:35;3.90;88.40
36424;DHT22;22458;45.328;9.514;2023-02-01T06:18:03;4.00;88.50
36424;DHT22;22458;45.328;9.514;2023-02-01T06:20:29;3.90;88.40
36424;DHT22;22458;45.328;9.514;2023-02-01T06:22:55;4.00;88.40
36424;DHT22;22458;45.328;9.514;2023-02-01T06:25:21;3.90;88.40
36424;DHT22;22458;45.328;9.514;2023-02-01T06:27:47;3.80;88.20
36424;DHT22;22458;45.328;9.514;2023-02-01T06:30:14;3.80;88.40
36424;DHT22;22458;45.328;9.514;2023-02-01T06:32:40;3.80;88.50
36424;DHT22;22458;45.328;9.514;2023-02-01T06:35:07;3.80;89.20
36424;DHT22;22458;45.328;9.514;2023-02-01T06:37:37;3.80;88.60
36424;DHT22;22458;45.328;9.514;2023-02-01T06:40:03;3.80;88.50
36424;DHT22;22458;45.328;9.514;2023-02-01T06:42:29;3.70;88.40
36424;DHT22;22458;45.328;9.514;2023-02-01T06:44:54;3.70;88.50
36424;DHT22;22458;45.328;9.514;2023-02-01T06:47:20;3.70;88.60
36424;DHT22;22458;45.328;9.514;2023-02-01T06:49:46;3.70;88.70
36424;DHT22;22458;45.328;9.514;2023-02-01T06:52:12;3.70;88.80
36424;DHT22;22458;45.328;9.514;2023-02-01T06:54:38;3.80;88.80
36424;DHT22;22458;45.328;9.514;2023-02-01T06:57:03;3.70;88.60
36424;DHT22;22458;45.328;9.514;2023-02-01T06:59:29;3.70;88.50
36424;DHT22;22458;45.328;9.514;2023-02-01T07:01:55;3.60;88.60
36424;DHT22;22458;45.328;9.514;2023-02-01T07:04:21;3.60;88.80
36424;DHT22;22458;45.328;9.514;2023-02-01T07:06:47;3.50;88.80
36424;DHT22;22458;45.328;9.514;2023-02-01T07:09:13;3.60;88.90
36424;DHT22;22458;45.328;9.514;2023-02-01T07:11:39;3.60;88.80
36424;DHT22;22458;45.328;9.514;2023-02-01T07:14:09;3.60;88.70
36424;DHT22;22458;45.328;9.514;2023-02-01T07:16:34;3.70;88.70
36424;DHT22;22458;45.328;9.514;2023-02-01T07:19:00;3.70;88.70
36424;DHT22;22458;45.328;9.514;2023-02-01T07:21:27;3.70;88.70
36424;DHT22;22458;45.328;9.514;2023-02-01T07:23:54;3.80;88.70
36424;DHT22;22458;45.328;9.514;2023-02-01T07:26:20;3.80;88.70
36424;DHT22;22458;45.328;9.514;2023-02-01T07:28:46;3.80;88.70
36424;DHT22;22458;45.328;9.514;2023-02-01T07:31:18;3.90;88.80
36424;DHT22;22458;45.328;9.514;2023-02-01T07:33:46;3.90;88.70
36424;DHT22;22458;45.328;9.514;2023-02-01T07:36:14;3.90;88.60
36424;DHT22;22458;45.328;9.514;2023-02-01T07:38:40;3.80;88.60
36424;DHT22;22458;45.328;9.514;2023-02-01T07:41:07;3.80;88.80
36424;DHT22;22458;45.328;9.514;2023-02-01T07:43:34;3.80;88.90
36424;DHT22;22458;45.328;9.514;2023-02-01T07:46:01;3.80;89.00
36424;DHT22;22458;45.328;9.514;2023-02-01T07:48:28;3.90;89.10
36424;DHT22;22458;45.328;9.514;2023-02-01T07:51:05;3.90;89.10
36424;DHT22;22458;45.328;9.514;2023-02-01T07:53:32;3.80;89.10
36424;DHT22;22458;45.328;9.514;2023-02-01T07:55:58;3.90;89.20
36424;DHT22;22458;45.328;9.514;2023-02-01T07:58:25;4.00;89.10
36424;DHT22;22458;45.328;9.514;2023-02-01T08:00:51;4.00;89.10
36424;DHT22;22458;45.328;9.514;2023-02-01T08:03:36;4.00;89.20
36424;DHT22;22458;45.328;9.514;2023-02-01T08:06:02;4.10;89.30
36424;DHT22;22458;45.328;9.514;2023-02-01T08:08:28;4.20;89.40
36424;DHT22;22458;45.328;9.514;2023-02-01T08:11:01;4.20;89.40
36424;DHT22;22458;45.328;9.514;2023-02-01T08:13:27;4.30;89.60
36424;DHT22;22458;45.328;9.514;2023-02-01T08:15:58;4.30;89.80
36424;DHT22;22458;45.328;9.514;2023-02-01T08:18:24;4.30;89.80
36424;DHT22;22458;45.328;9.514;2023-02-01T08:20:50;4.30;89.90
36424;DHT22;22458;45.328;9.514;2023-02-01T08:23:16;4.30;90.00
36424;DHT22;22458;45.328;9.514;2023-02-01T08:25:43;4.20;90.20
36424;DHT22;22458;45.328;9.514;2023-02-01T08:28:10;4.30;90.30
36424;DHT22;22458;45.328;9.514;2023-02-01T08:30:39;4.40;90.30
36424;DHT22;22458;45.328;9.514;2023-02-01T08:33:07;4.50;90.30
36424;DHT22;22458;45.328;9.514;2023-02-01T08:35:38;4.60;90.30
36424;DHT22;22458;45.328;9.514;2023-02-01T08:38:04;4.70;90.30
36424;DHT22;22458;45.328;9.514;2023-02-01T08:40:31;4.70;90.30
36424;DHT22;22458;45.328;9.514;2023-02-01T08:42:57;4.80;90.20
36424;DHT22;22458;45.328;9.514;2023-02-01T08:45:28;4.90;90.10
36424;DHT22;22458;45.328;9.514;2023-02-01T08:47:56;5.00;90.10
36424;DHT22;22458;45.328;9.514;2023-02-01T08:50:23;5.10;90.00
36424;DHT22;22458;45.328;9.514;2023-02-01T08:52:49;5.10;89.90
36424;DHT22;22458;45.328;9.514;2023-02-01T08:55:15;5.20;89.90
36424;DHT22;22458;45.328;9.514;2023-02-01T08:57:41;5.20;89.80
36424;DHT22;22458;45.328;9.514;2023-02-01T09:00:09;5.20;89.90
36424;DHT22;22458;45.328;9.514;2023-02-01T09:02:36;5.30;90.00
36424;DHT22;22458;45.328;9.514;2023-02-01T09:05:02;5.30;90.00
36424;DHT22;22458;45.328;9.514;2023-02-01T09:07:28;5.40;90.00
36424;DHT22;22458;45.328;9.514;2023-02-01T09:09:54;5.50;90.00
36424;DHT22;22458;45.328;9.514;2023-02-01T09:12:22;5.60;89.90
36424;DHT22;22458;45.328;9.514;2023-02-01T09:14:48;5.60;89.90
36424;DHT22;22458;45.328;9.514;2023-02-01T09:17:14;5.70;89.80
36424;DHT22;22458;45.328;9.514;2023-02-01T09:19:39;5.80;89.70
36424;DHT22;22458;45.328;9.514;2023-02-01T09:22:05;5.90;90.10
36424;DHT22;22458;45.328;9.514;2023-02-01T09:24:31;5.90;89.70
36424;DHT22;22458;45.328;9.514;2023-02-01T09:26:57;6.10;89.50
36424;DHT22;22458;45.328;9.514;2023-02-01T09:29:22;6.20;89.30
36424;DHT22;22458;45.328;9.514;2023-02-01T09:31:48;6.30;89.10
36424;DHT22;22458;45.328;9.514;2023-02-01T09:34:14;6.30;88.90
36424;DHT22;22458;45.328;9.514;2023-02-01T09:36:40;6.40;88.80
36424;DHT22;22458;45.328;9.514;2023-02-01T09:39:05;6.50;88.70
36424;DHT22;22458;45.328;9.514;2023-02-01T09:44:33;6.60;88.50
36424;DHT22;22458;45.328;9.514;2023-02-01T09:47:02;6.70;88.40
36424;DHT22;22458;45.328;9.514;2023-02-01T09:49:38;6.90;88.30
36424;DHT22;22458;45.328;9.514;2023-02-01T09:52:10;7.00;88.10
36424;DHT22;22458;45.328;9.514;2023-02-01T09:54:54;7.00;87.90
36424;DHT22;22458;45.328;9.514;2023-02-01T09:57:32;7.20;87.80
36424;DHT22;22458;45.328;9.514;2023-02-01T10:00:23;7.30;87.60
36424;DHT22;22458;45.328;9.514;2023-02-01T10:02:51;7.40;87.50
36424;DHT22;22458;45.328;9.514;2023-02-01T10:06:12;7.60;87.40
36424;DHT22;22458;45.328;9.514;2023-02-01T10:08:19;7.60;87.00
36424;DHT22;22458;45.328;9.514;2023-02-01T10:10:52;7.70;87.00
36424;DHT22;22458;45.328;9.514;2023-02-01T10:16:24;8.00;86.70
36424;DHT22;22458;45.328;9.514;2023-02-01T10:19:16;8.20;86.50
36424;DHT22;22458;45.328;9.514;2023-02-01T10:21:58;8.40;87.10
36424;DHT22;22458;45.328;9.514;2023-02-01T10:27:17;9.00;87.20
36424;DHT22;22458;45.328;9.514;2023-02-01T10:29:46;9.20;87.00
36424;DHT22;22458;45.328;9.514;2023-02-01T10:32:18;9.40;87.10
36424;DHT22;22458;45.328;9.514;2023-02-01T10:34:49;9.60;86.50
36424;DHT22;22458;45.328;9.514;2023-02-01T10:37:36;9.80;86.00
36424;DHT22;22458;45.328;9.514;2023-02-01T10:40:22;9.90;85.10
36424;DHT22;22458;45.328;9.514;2023-02-01T10:42:51;9.90;85.10
36424;DHT22;22458;45.328;9.514;2023-02-01T10:45:20;10.00;84.40
36424;DHT22;22458;45.328;9.514;2023-02-01T10:47:49;10.00;84.10
36424;DHT22;22458;45.328;9.514;2023-02-01T10:53:17;10.10;83.10
36424;DHT22;22458;45.328;9.514;2023-02-01T11:01:03;10.80;83.00
36424;DHT22;22458;45.328;9.514;2023-02-01T11:03:33;11.10;82.20
36424;DHT22;22458;45.328;9.514;2023-02-01T11:06:01;11.30;82.00
36424;DHT22;22458;45.328;9.514;2023-02-01T11:08:28;11.40;81.10
36424;DHT22;22458;45.328;9.514;2023-02-01T11:11:01;11.30;80.50
36424;DHT22;22458;45.328;9.514;2023-02-01T11:13:31;11.40;80.10
36424;DHT22;22458;45.328;9.514;2023-02-01T11:15:57;11.30;80.00
36424;DHT22;22458;45.328;9.514;2023-02-01T11:18:36;11.20;79.70
36424;DHT22;22458;45.328;9.514;2023-02-01T11:21:02;11.10;79.60
36424;DHT22;22458;45.328;9.514;2023-02-01T11:23:30;10.90;79.80
36424;DHT22;22458;45.328;9.514;2023-02-01T11:26:00;10.90;80.00
36424;DHT22;22458;45.328;9.514;2023-02-01T11:28:33;10.90;79.90
36424;DHT22;22458;45.328;9.514;2023-02-01T11:31:09;10.90;80.00
36424;DHT22;22458;45.328;9.514;2023-02-01T11:33:37;10.90;79.90
36424;DHT22;22458;45.328;9.514;2023-02-01T11:36:10;11.00;79.60
36424;DHT22;22458;45.328;9.514;2023-02-01T11:38:37;11.10;79.60
36424;DHT22;22458;45.328;9.514;2023-02-01T11:41:20;11.10;79.50
36424;DHT22;22458;45.328;9.514;2023-02-01T11:43:53;11.30;79.50
36424;DHT22;22458;45.328;9.514;2023-02-01T11:46:21;11.40;79.40
36424;DHT22;22458;45.328;9.514;2023-02-01T11:48:51;11.50;79.20
36424;DHT22;22458;45.328;9.514;2023-02-01T11:51:47;11.60;79.20
36424;DHT22;22458;45.328;9.514;2023-02-01T11:54:34;11.90;79.10
36424;DHT22;22458;45.328;9.514;2023-02-01T11:57:19;12.00;79.00
36424;DHT22;22458;45.328;9.514;2023-02-01T12:05:47;12.20;78.90
36424;DHT22;22458;45.328;9.514;2023-02-01T12:08:25;12.40;78.90
36424;DHT22;22458;45.328;9.514;2023-02-01T12:14:24;12.60;78.80
36424;DHT22;22458;45.328;9.514;2023-02-01T12:35:49;13.60;78.90
36424;DHT22;22458;45.328;9.514;2023-02-01T12:41:29;13.90;78.60
36424;DHT22;22458;45.328;9.514;2023-02-01T12:47:03;14.20;78.20
36424;DHT22;22458;45.328;9.514;2023-02-01T12:50:02;14.20;78.00
36424;DHT22;22458;45.328;9.514;2023-02-01T12:52:44;14.30;77.90
36424;DHT22;22458;45.328;9.514;2023-02-01T12:55:27;14.30;77.80
36424;DHT22;22458;45.328;9.514;2023-02-01T12:58:12;14.40;77.50
36424;DHT22;22458;45.328;9.514;2023-02-01T13:00:47;14.40;77.50
36424;DHT22;22458;45.328;9.514;2023-02-01T13:03:37;14.50;77.40
36424;DHT22;22458;45.328;9.514;2023-02-01T13:06:57;14.60;77.30
36424;DHT22;22458;45.328;9.514;2023-02-01T13:11:59;14.80;76.80
36424;DHT22;22458;45.328;9.514;2023-02-01T13:14:36;14.80;76.90
36424;DHT22;22458;45.328;9.514;2023-02-01T13:17:15;14.90;76.70
36424;DHT22;22458;45.328;9.514;2023-02-01T13:22:19;15.00;76.40
36424;DHT22;22458;45.328;9.514;2023-02-01T13:24:49;15.00;76.10
36424;DHT22;22458;45.328;9.514;2023-02-01T13:27:17;15.10;76.20
36424;DHT22;22458;45.328;9.514;2023-02-01T13:29:59;15.20;75.90
36424;DHT22;22458;45.328;9.514;2023-02-01T13:37:52;15.30;75.40
36424;DHT22;22458;45.328;9.514;2023-02-01T13:43:22;15.40;74.90
36424;DHT22;22458;45.328;9.514;2023-02-01T13:45:52;15.40;74.60
36424;DHT22;22458;45.328;9.514;2023-02-01T13:48:45;15.50;74.20
36424;DHT22;22458;45.328;9.514;2023-02-01T13:51:12;15.60;73.90
36424;DHT22;22458;45.328;9.514;2023-02-01T13:53:47;15.60;73.70
36424;DHT22;22458;45.328;9.514;2023-02-01T13:56:19;15.60;73.60
36424;DHT22;22458;45.328;9.514;2023-02-01T13:58:47;15.60;73.70
36424;DHT22;22458;45.328;9.514;2023-02-01T14:03:55;15.70;73.10
36424;DHT22;22458;45.328;9.514;2023-02-01T14:09:10;15.70;73.10
36424;DHT22;22458;45.328;9.514;2023-02-01T14:11:53;15.70;73.00
36424;DHT22;22458;45.328;9.514;2023-02-01T14:19:27;15.80;73.30
36424;DHT22;22458;45.328;9.514;2023-02-01T14:21:59;15.90;73.30
36424;DHT22;22458;45.328;9.514;2023-02-01T14:24:32;16.00;73.10
36424;DHT22;22458;45.328;9.514;2023-02-01T14:29:38;16.00;72.50
36424;DHT22;22458;45.328;9.514;2023-02-01T14:32:18;16.00;72.60
36424;DHT22;22458;45.328;9.514;2023-02-01T14:34:51;16.00;72.60
36424;DHT22;22458;45.328;9.514;2023-02-01T14:39:52;16.00;72.80
36424;DHT22;22458;45.328;9.514;2023-02-01T14:47:51;16.00;72.30
36424;DHT22;22458;45.328;9.514;2023-02-01T14:50:46;15.90;72.30
36424;DHT22;22458;45.328;9.514;2023-02-01T14:53:18;15.90;72.50
36424;DHT22;22458;45.328;9.514;2023-02-01T15:01:34;15.90;72.90
36424;DHT22;22458;45.328;9.514;2023-02-01T15:06:52;15.90;72.90
36424;DHT22;22458;45.328;9.514;2023-02-01T15:09:34;15.90;72.90
36424;DHT22;22458;45.328;9.514;2023-02-01T15:12:27;15.90;73.00
36424;DHT22;22458;45.328;9.514;2023-02-01T15:15:22;15.90;72.80
36424;DHT22;22458;45.328;9.514;2023-02-01T15:17:57;15.80;72.90
36424;DHT22;22458;45.328;9.514;2023-02-01T15:20:27;15.80;73.20
36424;DHT22;22458;45.328;9.514;2023-02-01T15:22:56;15.80;73.10
36424;DHT22;22458;45.328;9.514;2023-02-01T15:25:29;15.80;73.10
36424;DHT22;22458;45.328;9.514;2023-02-01T15:27:56;15.70;72.90
36424;DHT22;22458;45.328;9.514;2023-02-01T15:30:25;15.70;73.10
36424;DHT22;22458;45.328;9.514;2023-02-01T15:33:05;15.70;73.10
36424;DHT22;22458;45.328;9.514;2023-02-01T15:35:40;15.60;73.00
36424;DHT22;22458;45.328;9.514;2023-02-01T15:40:58;15.60;73.10
36424;DHT22;22458;45.328;9.514;2023-02-01T15:43:25;15.60;73.30
36424;DHT22;22458;45.328;9.514;2023-02-01T15:45:51;15.50;73.30
36424;DHT22;22458;45.328;9.514;2023-02-01T15:48:23;15.50;73.40
36424;DHT22;22458;45.328;9.514;2023-02-01T15:50:51;15.50;73.50
36424;DHT22;22458;45.328;9.514;2023-02-01T15:53:21;15.40;73.60
36424;DHT22;22458;45.328;9.514;2023-02-01T15:55:52;15.30;73.60
36424;DHT22;22458;45.328;9.514;2023-02-01T15:58:20;15.30;74.10
36424;DHT22;22458;45.328;9.514;2023-02-01T16:01:04;15.20;74.00
36424;DHT22;22458;45.328;9.514;2023-02-01T16:03:41;15.20;74.80
36424;DHT22;22458;45.328;9.514;2023-02-01T16:06:31;15.10;74.50
36424;DHT22;22458;45.328;9.514;2023-02-01T16:09:01;15.10;74.70
36424;DHT22;22458;45.328;9.514;2023-02-01T16:11:29;15.00;74.90
36424;DHT22;22458;45.328;9.514;2023-02-01T16:14:00;14.90;75.10
36424;DHT22;22458;45.328;9.514;2023-02-01T16:16:27;14.90;75.30
36424;DHT22;22458;45.328;9.514;2023-02-01T16:18:53;14.80;75.60
36424;DHT22;22458;45.328;9.514;2023-02-01T16:21:20;14.70;75.80
36424;DHT22;22458;45.328;9.514;2023-02-01T16:23:52;14.70;76.10
36424;DHT22;22458;45.328;9.514;2023-02-01T16:26:19;14.60;76.50
36424;DHT22;22458;45.328;9.514;2023-02-01T16:28:45;14.50;77.00
36424;DHT22;22458;45.328;9.514;2023-02-01T16:31:16;14.30;77.50
36424;DHT22;22458;45.328;9.514;2023-02-01T16:33:48;14.20;78.00
36424;DHT22;22458;45.328;9.514;2023-02-01T16:36:14;14.10;78.40
36424;DHT22;22458;45.328;9.514;2023-02-01T16:38:40;14.00;78.90
36424;DHT22;22458;45.328;9.514;2023-02-01T16:41:06;13.90;79.30
36424;DHT22;22458;45.328;9.514;2023-02-01T16:43:31;13.80;79.60
36424;DHT22;22458;45.328;9.514;2023-02-01T16:46:00;13.80;80.40
36424;DHT22;22458;45.328;9.514;2023-02-01T16:48:34;13.70;80.20
36424;DHT22;22458;45.328;9.514;2023-02-01T16:51:09;13.60;80.40
36424;DHT22;22458;45.328;9.514;2023-02-01T16:53:37;13.50;80.60
36424;DHT22;22458;45.328;9.514;2023-02-01T16:58:39;13.40;80.90
36424;DHT22;22458;45.328;9.514;2023-02-01T17:01:06;13.30;81.00
36424;DHT22;22458;45.328;9.514;2023-02-01T17:03:32;13.30;81.10
36424;DHT22;22458;45.328;9.514;2023-02-01T17:05:58;13.30;81.30
36424;DHT22;22458;45.328;9.514;2023-02-01T17:08:29;13.20;81.30
36424;DHT22;22458;45.328;9.514;2023-02-01T17:10:55;13.20;81.30
36424;DHT22;22458;45.328;9.514;2023-02-01T17:13:20;13.10;81.40
36424;DHT22;22458;45.328;9.514;2023-02-01T17:16:02;13.10;81.40
36424;DHT22;22458;45.328;9.514;2023-02-01T17:18:32;13.10;81.40
36424;DHT22;22458;45.328;9.514;2023-02-01T17:20:58;13.00;81.50
36424;DHT22;22458;45.328;9.514;2023-02-01T17:23:27;13.00;81.40
36424;DHT22;22458;45.328;9.514;2023-02-01T17:25:53;13.00;81.60
36424;DHT22;22458;45.328;9.514;2023-02-01T17:28:19;13.00;81.40
36424;DHT22;22458;45.328;9.514;2023-02-01T17:30:46;13.00;81.70
36424;DHT22;22458;45.328;9.514;2023-02-01T17:33:19;13.00;81.50
36424;DHT22;22458;45.328;9.514;2023-02-01T17:35:45;13.00;81.60
36424;DHT22;22458;45.328;9.514;2023-02-01T17:38:13;13.00;81.70
36424;DHT22;22458;45.328;9.514;2023-02-01T17:40:39;13.00;81.90
36424;DHT22;22458;45.328;9.514;2023-02-01T17:43:04;13.00;81.90
36424;DHT22;22458;45.328;9.514;2023-02-01T17:45:38;12.90;81.90
36424;DHT22;22458;45.328;9.514;2023-02-01T17:48:06;12.90;81.90
36424;DHT22;22458;45.328;9.514;2023-02-01T17:50:34;12.90;82.00
36424;DHT22;22458;45.328;9.514;2023-02-01T17:53:01;12.80;81.90
36424;DHT22;22458;45.328;9.514;2023-02-01T17:55:28;12.80;81.90
36424;DHT22;22458;45.328;9.514;2023-02-01T17:57:54;12.80;81.90
36424;DHT22;22458;45.328;9.514;2023-02-01T18:00:20;12.70;81.90
36424;DHT22;22458;45.328;9.514;2023-02-01T18:02:46;12.60;82.10
36424;DHT22;22458;45.328;9.514;2023-02-01T18:05:38;12.50;82.00
36424;DHT22;22458;45.328;9.514;2023-02-01T18:08:06;12.50;82.00
36424;DHT22;22458;45.328;9.514;2023-02-01T18:10:32;12.40;82.10